Date,TemperatureHighF,TemperatureAvgF,TemperatureLowF,DewpointHighF,DewpointAvgF,DewpointLowF,HumidityHigh,HumidityAvg,HumidityLow,PressureMaxIn,PressureMinIn,WindSpeedMaxMPH,WindSpeedAvgMPH,GustSpeedMaxMPH,PrecipitationSumIn
2013-3-1,38.2,32.7,29.3,32.5,28.4,24.3,98,84,70,29.69,29.54,17,4,17,0.10
2013-3-2,35.3,30.7,26.7,27.6,25.3,21.9,85,80,71,29.68,29.62,15,5,15,0.03
2013-3-3,32.6,27.6,23.6,29.5,24.1,20.8,92,87,82,29.65,29.59,15,4,15,0.06
2013-3-4,34.5,27.9,21.4,23.7,21.1,17.0,86,76,63,29.80,29.62,24,8,24,0.00
2013-3-5,43.2,31.1,23.4,29.3,24.2,19.3,89,76,55,30.07,29.79,14,3,14,0.00
2013-3-6,34.5,31.7,29.4,31.6,28.8,25.4,95,89,81,30.12,30.03,25,10,25,0.06
2013-3-7,32.7,29.4,27.0,29.1,26.7,23.9,96,90,75,30.10,30.02,23,6,23,0.06
2013-3-8,32.9,27.1,24.0,28.4,25.4,22.0,97,93,83,30.20,29.97,14,2,14,0.00
2013-3-9,55.7,35.2,20.3,30.2,22.5,16.6,95,66,27,30.31,30.18,12,2,12,0.33
2013-3-10,55.7,36.2,20.5,31.1,25.8,18.3,94,69,36,30.36,30.23,15,4,15,0.01
2013-3-11,44.1,37.9,31.4,37.5,33.0,28.8,93,83,70,30.26,30.08,26,8,26,0.00
2013-3-12,47.4,43.4,38.2,47.1,42.7,37.4,99,97,92,30.08,29.66,26,10,26,0.96
2013-3-13,46.7,36.9,28.7,37.7,27.6,19.3,98,72,40,29.76,29.68,22,7,22,0.00
2013-3-14,29.8,24.1,16.1,23.4,13.6,5.7,81,64,51,29.82,29.70,26,10,27,0.00
2013-3-15,35.4,24.3,12.6,27.4,14.8,5.7,92,69,35,29.85,29.62,23,7,23,0.00
2013-3-16,35.0,27.1,19.3,25.2,15.4,11.1,90,63,41,29.86,29.69,14,3,14,0.01
2013-3-17,33.4,23.9,15.5,13.8,9.3,3.5,86,56,33,30.28,29.85,27,5,27,0.00
2013-3-18,36.7,22.6,6.0,22.2,6.7,-0.1,90,54,26,30.44,30.17,17,2,17,0.00
2013-3-19,31.6,27.4,24.1,30.0,25.8,22.1,95,94,90,30.17,29.63,27,6,27,0.01
2013-3-20,34.7,25.1,17.8,25.5,20.1,14.6,95,82,63,29.78,29.68,25,7,25,0.15
2013-3-21,38.4,25.0,11.5,19.4,14.9,9.4,93,68,41,29.78,29.58,12,2,12,0.22
2013-3-22,37.7,26.5,14.8,22.6,16.9,10.7,86,68,47,29.74,29.61,28,6,28,0.07
2013-3-23,39.8,29.6,20.5,23.6,18.8,16.5,93,66,44,29.77,29.65,31,9,31,0.04
2013-3-24,43.9,33.4,26.2,25.5,22.1,19.2,80,64,47,29.81,29.71,20,5,20,0.01
2013-3-25,40.6,32.0,23.5,28.2,24.5,19.9,87,74,55,29.75,29.50,20,4,20,0.00
2013-3-26,45.2,34.6,27.1,29.7,24.7,18.9,93,69,41,29.78,29.57,16,2,16,0.00
2013-3-27,48.7,35.2,21.7,29.2,23.7,17.1,86,65,39,29.88,29.75,20,4,20,0.00
2013-3-28,48.6,37.7,31.6,35.6,30.7,28.6,96,77,50,30.02,29.87,17,2,17,0.03
2013-3-29,52.4,40.1,31.5,34.6,30.5,27.8,89,71,43,30.04,29.96,17,3,17,0.00
2013-3-30,53.7,39.0,28.6,30.6,25.2,16.3,91,63,29,30.08,30.00,20,3,20,0.00
2013-3-31,52.7,38.8,25.1,37.1,26.5,19.3,94,65,34,30.08,29.70,26,7,26,0.15